sensor_id;sensor_type;location;lat;lon;timestamp;pressure;altitude;pressure_sealevel;temperature;humidity
23229;BME280;11783;50.350;6.576;2023-04-10T00:00:59;96771.88;;;5.28;75.22
23229;BME280;11783;50.350;6.576;2023-04-10T00:03:24;96767.22;;;5.30;74.97
23229;BME280;11783;50.350;6.576;2023-04-10T00:05:50;96762.38;;;5.34;75.22
23229;BME280;11783;50.350;6.576;2023-04-10T00:08:15;96762.16;;;5.35;74.80
23229;BME280;11783;50.350;6.576;2023-04-10T00:10:41;96759.34;;;5.37;74.74
23229;BME280;11783;50.350;6.576;2023-04-10T00:13:06;96754.69;;;5.39;74.19
23229;BME280;11783;50.350;6.576;2023-04-10T00:15:31;96756.50;;;5.38;73.91
23229;BME280;11783;50.350;6.576;2023-04-10T00:17:57;96751.44;;;5.37;73.94
23229;BME280;11783;50.350;6.576;2023-04-10T00:20:22;96750.63;;;5.36;73.93
23229;BME280;11783;50.350;6.576;2023-04-10T00:22:48;96749.19;;;5.34;74.33
23229;BME280;11783;50.350;6.576;2023-04-10T00:25:14;96744.53;;;5.29;74.16
23229;BME280;11783;50.350;6.576;2023-04-10T00:27:39;96746.69;;;5.19;74.65
23229;BME280;11783;50.350;6.576;2023-04-10T00:30:05;96741.63;;;5.17;74.34
23229;BME280;11783;50.350;6.576;2023-04-10T00:32:31;96743.03;;;5.13;74.70
23229;BME280;11783;50.350;6.576;2023-04-10T00:34:56;96744.84;;;5.13;74.10
23229;BME280;11783;50.350;6.576;2023-04-10T00:37:22;96745.41;;;5.02;76.02
23229;BME280;11783;50.350;6.576;2023-04-10T00:39:47;96737.88;;;4.99;74.80
23229;BME280;11783;50.350;6.576;2023-04-10T00:42:12;96734.84;;;5.02;74.39
23229;BME280;11783;50.350;6.576;2023-04-10T00:44:38;96729.59;;;5.02;74.51
23229;BME280;11783;50.350;6.576;2023-04-10T00:47:06;96728.41;;;5.04;74.52
23229;BME280;11783;50.350;6.576;2023-04-10T00:49:32;96724.16;;;5.03;74.43
23229;BME280;11783;50.350;6.576;2023-04-10T00:51:58;96725.31;;;5.01;73.75
23229;BME280;11783;50.350;6.576;2023-04-10T00:54:23;96720.25;;;4.99;75.02
23229;BME280;11783;50.350;6.576;2023-04-10T00:56:49;96717.19;;;4.89;74.79
23229;BME280;11783;50.350;6.576;2023-04-10T00:59:15;96719.94;;;4.74;76.43
23229;BME280;11783;50.350;6.576;2023-04-10T01:01:40;96725.50;;;4.58;77.96
23229;BME280;11783;50.350;6.576;2023-04-10T01:04:06;96722.78;;;4.45;77.56
23229;BME280;11783;50.350;6.576;2023-04-10T01:07:05;96725.16;;;4.33;78.30
23229;BME280;11783;50.350;6.576;2023-04-10T01:09:51;96716.81;;;4.30;78.06
23229;BME280;11783;50.350;6.576;2023-04-10T01:15:15;96710.06;;;4.20;79.12
23229;BME280;11783;50.350;6.576;2023-04-10T01:17:49;96699.63;;;4.06;80.79
23229;BME280;11783;50.350;6.576;2023-04-10T01:22:57;96683.09;;;4.12;78.65
23229;BME280;11783;50.350;6.576;2023-04-10T01:30:50;96666.84;;;4.30;76.70
23229;BME280;11783;50.350;6.576;2023-04-10T01:33:18;96670.91;;;4.32;76.41
23229;BME280;11783;50.350;6.576;2023-04-10T01:35:49;96656.53;;;4.35;76.30
23229;BME280;11783;50.350;6.576;2023-04-10T01:38:19;96665.03;;;4.37;76.60
23229;BME280;11783;50.350;6.576;2023-04-10T01:40:50;96649.88;;;4.39;76.15
23229;BME280;11783;50.350;6.576;2023-04-10T01:43:16;96646.84;;;4.42;76.10
23229;BME280;11783;50.350;6.576;2023-04-10T01:45:44;96646.63;;;4.37;76.79
23229;BME280;11783;50.350;6.576;2023-04-10T01:48:11;96649.66;;;4.34;76.35
23229;BME280;11783;50.350;6.576;2023-04-10T01:50:37;96647.00;;;4.34;75.90
23229;BME280;11783;50.350;6.576;2023-04-10T01:53:05;96643.56;;;4.33;75.94
23229;BME280;11783;50.350;6.576;2023-04-10T01:55:32;96639.44;;;4.24;77.16
23229;BME280;11783;50.350;6.576;2023-04-10T01:57:58;96638.94;;;4.07;78.28
23229;BME280;11783;50.350;6.576;2023-04-10T02:00:24;96634.84;;;3.98;78.22
23229;BME280;11783;50.350;6.576;2023-04-10T02:02:49;96634.81;;;3.91;78.06
23229;BME280;11783;50.350;6.576;2023-04-10T02:05:16;96634.41;;;3.94;77.71
23229;BME280;11783;50.350;6.576;2023-04-10T02:07:46;96630.59;;;3.97;77.01
23229;BME280;11783;50.350;6.576;2023-04-10T02:10:19;96627.56;;;4.00;76.80
23229;BME280;11783;50.350;6.576;2023-04-10T02:12:55;96630.78;;;3.95;78.38
23229;BME280;11783;50.350;6.576;2023-04-10T02:15:23;96634.13;;;3.83;79.51
23229;BME280;11783;50.350;6.576;2023-04-10T02:17:51;96633.31;;;3.82;78.30
23229;BME280;11783;50.350;6.576;2023-04-10T02:20:17;96626.81;;;3.78;78.50
23229;BME280;11783;50.350;6.576;2023-04-10T02:22:43;96633.50;;;3.81;77.81
23229;BME280;11783;50.350;6.576;2023-04-10T02:25:09;96621.78;;;3.83;77.40
23229;BME280;11783;50.350;6.576;2023-04-10T02:27:35;96621.38;;;3.86;77.06
23229;BME280;11783;50.350;6.576;2023-04-10T02:30:02;96622.22;;;3.87;77.48
23229;BME280;11783;50.350;6.576;2023-04-10T02:32:28;96629.03;;;3.81;77.58
23229;BME280;11783;50.350;6.576;2023-04-10T02:34:53;96633.66;;;3.73;79.50
23229;BME280;11783;50.350;6.576;2023-04-10T02:37:19;96630.31;;;3.64;79.67
23229;BME280;11783;50.350;6.576;2023-04-10T02:39:44;96640.09;;;3.49;81.05
23229;BME280;11783;50.350;6.576;2023-04-10T02:42:10;96629.78;;;3.47;79.62
23229;BME280;11783;50.350;6.576;2023-04-10T02:44:36;96627.94;;;3.48;80.14
23229;BME280;11783;50.350;6.576;2023-04-10T02:47:01;96625.75;;;3.51;78.91
23229;BME280;11783;50.350;6.576;2023-04-10T02:49:26;96629.66;;;3.55;78.33
23229;BME280;11783;50.350;6.576;2023-04-10T02:51:51;96633.53;;;3.59;78.00
23229;BME280;11783;50.350;6.576;2023-04-10T02:54:17;96623.00;;;3.59;77.60
23229;BME280;11783;50.350;6.576;2023-04-10T02:56:42;96626.03;;;3.56;78.98
23229;BME280;11783;50.350;6.576;2023-04-10T02:59:08;96616.88;;;3.52;78.22
23229;BME280;11783;50.350;6.576;2023-04-10T03:01:33;96609.78;;;3.53;77.54
23229;BME280;11783;50.350;6.576;2023-04-10T03:03:58;96605.38;;;3.53;77.83
23229;BME280;11783;50.350;6.576;2023-04-10T03:06:24;96609.63;;;3.54;77.55
23229;BME280;11783;50.350;6.576;2023-04-10T03:08:52;96606.19;;;3.54;77.91
23229;BME280;11783;50.350;6.576;2023-04-10T03:11:17;96605.00;;;3.56;77.89
23229;BME280;11783;50.350;6.576;2023-04-10T03:13:43;96600.75;;;3.55;76.92
23229;BME280;11783;50.350;6.576;2023-04-10T03:16:08;96590.22;;;3.55;77.06
23229;BME280;11783;50.350;6.576;2023-04-10T03:18:33;96593.88;;;3.54;77.34
23229;BME280;11783;50.350;6.576;2023-04-10T03:20:59;96591.25;;;3.54;76.79
23229;BME280;11783;50.350;6.576;2023-04-10T03:23:26;96593.22;;;3.52;76.66
23229;BME280;11783;50.350;6.576;2023-04-10T03:25:51;96588.16;;;3.51;76.47
23229;BME280;11783;50.350;6.576;2023-04-10T03:28:20;96584.91;;;3.49;76.89
23229;BME280;11783;50.350;6.576;2023-04-10T03:30:47;96587.53;;;3.49;77.21
23229;BME280;11783;50.350;6.576;2023-04-10T03:33:12;96586.91;;;3.47;76.60
23229;BME280;11783;50.350;6.576;2023-04-10T03:35:38;96587.69;;;3.41;76.68
23229;BME280;11783;50.350;6.576;2023-04-10T03:38:03;96584.25;;;3.40;77.07
23229;BME280;11783;50.350;6.576;2023-04-10T03:40:28;96582.00;;;3.37;77.05
23229;BME280;11783;50.350;6.576;2023-04-10T03:42:54;96581.19;;;3.37;77.00
23229;BME280;11783;50.350;6.576;2023-04-10T03:45:19;96580.53;;;3.34;77.08
23229;BME280;11783;50.350;6.576;2023-04-10T03:47:45;96572.03;;;3.32;77.06
23229;BME280;11783;50.350;6.576;2023-04-10T03:50:10;96567.16;;;3.29;76.95
23229;BME280;11783;50.350;6.576;2023-04-10T03:52:36;96568.97;;;3.29;76.70
23229;BME280;11783;50.350;6.576;2023-04-10T03:55:01;96556.22;;;3.26;77.05
23229;BME280;11783;50.350;6.576;2023-04-10T03:57:26;96557.22;;;3.25;76.57
23229;BME280;11783;50.350;6.576;2023-04-10T03:59:51;96562.47;;;3.25;76.98
23229;BME280;11783;50.350;6.576;2023-04-10T04:02:17;96564.69;;;3.21;76.69
23229;BME280;11783;50.350;6.576;2023-04-10T04:04:42;96554.38;;;3.20;77.25
23229;BME280;11783;50.350;6.576;2023-04-10T04:07:08;96556.19;;;3.19;77.31
23229;BME280;11783;50.350;6.576;2023-04-10T04:09:34;96563.25;;;3.19;76.93
23229;BME280;11783;50.350;6.576;2023-04-10T04:11:59;96559.19;;;3.16;77.06
23229;BME280;11783;50.350;6.576;2023-04-10T04:14:25;96554.75;;;3.17;77.32
23229;BME280;11783;50.350;6.576;2023-04-10T04:16:50;96560.16;;;3.15;77.16
23229;BME280;11783;50.350;6.576;2023-04-10T04:19:16;96559.72;;;3.12;76.73
23229;BME280;11783;50.350;6.576;2023-04-10T04:21:41;96563.09;;;3.06;79.28
23229;BME280;11783;50.350;6.576;2023-04-10T04:24:06;96577.13;;;2.77;81.96
23229;BME280;11783;50.350;6.576;2023-04-10T04:26:32;96574.56;;;2.62;82.01
23229;BME280;11783;50.350;6.576;2023-04-10T04:28:57;96570.84;;;2.56;82.14
23229;BME280;11783;50.350;6.576;2023-04-10T04:31:22;96562.78;;;2.58;80.37
23229;BME280;11783;50.350;6.576;2023-04-10T04:33:49;96552.78;;;2.61;80.35
23229;BME280;11783;50.350;6.576;2023-04-10T04:36:14;96556.47;;;2.67;79.89
23229;BME280;11783;50.350;6.576;2023-04-10T04:38:41;96558.69;;;2.70;79.58
23229;BME280;11783;50.350;6.576;2023-04-10T04:41:06;96564.50;;;2.65;80.00
23229;BME280;11783;50.350;6.576;2023-04-10T04:43:32;96565.94;;;2.68;79.64
23229;BME280;11783;50.350;6.576;2023-04-10T04:45:57;96559.09;;;2.67;79.33
23229;BME280;11783;50.350;6.576;2023-04-10T04:48:23;96563.94;;;2.70;79.16
23229;BME280;11783;50.350;6.576;2023-04-10T04:50:48;96560.94;;;2.73;79.05
23229;BME280;11783;50.350;6.576;2023-04-10T04:53:14;96561.78;;;2.73;78.63
23229;BME280;11783;50.350;6.576;2023-04-10T04:55:40;96563.38;;;2.74;79.24
23229;BME280;11783;50.350;6.576;2023-04-10T04:58:05;96570.63;;;2.72;79.32
23229;BME280;11783;50.350;6.576;2023-04-10T05:00:30;96561.78;;;2.73;78.69
23229;BME280;11783;50.350;6.576;2023-04-10T05:02:56;96569.75;;;2.65;79.90
23229;BME280;11783;50.350;6.576;2023-04-10T05:05:22;96568.94;;;2.65;78.62
23229;BME280;11783;50.350;6.576;2023-04-10T05:07:47;96577.38;;;2.60;79.66
23229;BME280;11783;50.350;6.576;2023-04-10T05:10:12;96569.31;;;2.62;79.00
23229;BME280;11783;50.350;6.576;2023-04-10T05:12:38;96556.41;;;2.60;79.59
23229;BME280;11783;50.350;6.576;2023-04-10T05:15:06;96558.28;;;2.52;80.24
23229;BME280;11783;50.350;6.576;2023-04-10T05:17:31;96567.44;;;2.41;83.27
23229;BME280;11783;50.350;6.576;2023-04-10T05:19:57;96568.56;;;2.32;82.50
23229;BME280;11783;50.350;6.576;2023-04-10T05:22:22;96561.31;;;2.34;81.16
23229;BME280;11783;50.350;6.576;2023-04-10T05:24:47;96566.38;;;2.35;80.49
23229;BME280;11783;50.350;6.576;2023-04-10T05:27:13;96569.25;;;2.40;80.21
23229;BME280;11783;50.350;6.576;2023-04-10T05:29:38;96562.84;;;2.43;80.27
23229;BME280;11783;50.350;6.576;2023-04-10T05:32:04;96569.53;;;2.46;81.55
23229;BME280;11783;50.350;6.576;2023-04-10T05:34:29;96567.00;;;2.37;80.91
23229;BME280;11783;50.350;6.576;2023-04-10T05:36:54;96571.25;;;2.38;80.64
23229;BME280;11783;50.350;6.576;2023-04-10T05:39:20;96569.81;;;2.36;82.97
23229;BME280;11783;50.350;6.576;2023-04-10T05:41:45;96574.63;;;2.32;81.79
23229;BME280;11783;50.350;6.576;2023-04-10T05:44:10;96571.00;;;2.33;81.09
23229;BME280;11783;50.350;6.576;2023-04-10T05:46:36;96570.19;;;2.33;81.27
23229;BME280;11783;50.350;6.576;2023-04-10T05:49:01;96578.66;;;2.35;80.25
23229;BME280;11783;50.350;6.576;2023-04-10T05:51:27;96583.09;;;2.34;80.57
23229;BME280;11783;50.350;6.576;2023-04-10T05:53:53;96587.34;;;2.35;79.82
23229;BME280;11783;50.350;6.576;2023-04-10T05:56:18;96583.72;;;2.36;81.64
23229;BME280;11783;50.350;6.576;2023-04-10T05:58:43;96586.53;;;2.35;80.53
23229;BME280;11783;50.350;6.576;2023-04-10T06:01:09;96579.66;;;2.34;81.89
23229;BME280;11783;50.350;6.576;2023-04-10T06:03:35;96580.47;;;2.34;84.18
23229;BME280;11783;50.350;6.576;2023-04-10T06:06:01;96576.34;;;2.25;82.60
23229;BME280;11783;50.350;6.576;2023-04-10T06:08:27;96577.59;;;2.29;81.39
23229;BME280;11783;50.350;6.576;2023-04-10T06:10:52;96577.59;;;2.29;81.87
23229;BME280;11783;50.350;6.576;2023-04-10T06:13:18;96578.22;;;2.31;85.46
23229;BME280;11783;50.350;6.576;2023-04-10T06:15:43;96574.34;;;2.27;83.68
23229;BME280;11783;50.350;6.576;2023-04-10T06:18:09;96576.06;;;2.20;88.48
23229;BME280;11783;50.350;6.576;2023-04-10T06:20:34;96573.88;;;1.79;92.40
23229;BME280;11783;50.350;6.576;2023-04-10T06:23:01;96565.28;;;1.56;92.50
23229;BME280;11783;50.350;6.576;2023-04-10T06:25:27;96554.09;;;1.77;88.70
23229;BME280;11783;50.350;6.576;2023-04-10T06:27:52;96542.63;;;1.93;89.66
23229;BME280;11783;50.350;6.576;2023-04-10T06:30:18;96545.50;;;1.98;92.09
23229;BME280;11783;50.350;6.576;2023-04-10T06:32:43;96546.69;;;2.10;88.40
23229;BME280;11783;50.350;6.576;2023-04-10T06:35:08;96545.78;;;2.18;89.54
23229;BME280;11783;50.350;6.576;2023-04-10T06:37:34;96549.66;;;2.22;92.17
23229;BME280;11783;50.350;6.576;2023-04-10T06:40:08;96552.66;;;2.19;92.87
23229;BME280;11783;50.350;6.576;2023-04-10T06:42:34;96557.69;;;2.20;98.39
23229;BME280;11783;50.350;6.576;2023-04-10T06:45:01;96556.91;;;2.05;100.00
23229;BME280;11783;50.350;6.576;2023-04-10T06:47:27;96558.63;;;2.12;100.00
23229;BME280;11783;50.350;6.576;2023-04-10T06:49:53;96552.66;;;2.19;100.00
23229;BME280;11783;50.350;6.576;2023-04-10T06:52:19;96549.63;;;2.36;100.00
23229;BME280;11783;50.350;6.576;2023-04-10T06:54:45;96546.44;;;2.56;100.00
23229;BME280;11783;50.350;6.576;2023-04-10T06:57:10;96548.41;;;2.68;100.00
23229;BME280;11783;50.350;6.576;2023-04-10T06:59:35;96554.97;;;2.79;100.00
23229;BME280;11783;50.350;6.576;2023-04-10T07:02:02;96542.72;;;2.86;100.00
23229;BME280;11783;50.350;6.576;2023-04-10T07:04:27;96544.34;;;3.09;100.00
23229;BME280;11783;50.350;6.576;2023-04-10T07:06:53;96542.84;;;3.21;100.00
23229;BME280;11783;50.350;6.576;2023-04-10T07:09:18;96544.59;;;3.35;100.00
23229;BME280;11783;50.350;6.576;2023-04-10T07:11:44;96538.28;;;3.57;100.00
23229;BME280;11783;50.350;6.576;2023-04-10T07:14:09;96545.09;;;3.73;100.00
23229;BME280;11783;50.350;6.576;2023-04-10T07:16:35;96542.78;;;3.91;100.00
23229;BME280;11783;50.350;6.576;2023-04-10T07:19:01;96541.06;;;4.12;100.00
23229;BME280;11783;50.350;6.576;2023-04-10T07:21:26;96540.34;;;4.38;100.00
23229;BME280;11783;50.350;6.576;2023-04-10T07:23:52;96536.56;;;4.53;100.00
23229;BME280;11783;50.350;6.576;2023-04-10T07:26:17;96529.91;;;4.64;100.00
23229;BME280;11783;50.350;6.576;2023-04-10T07:28:43;96534.81;;;4.80;99.55
23229;BME280;11783;50.350;6.576;2023-04-10T07:31:09;96536.28;;;4.96;98.57
23229;BME280;11783;50.350;6.576;2023-04-10T07:33:35;96537.31;;;5.15;98.28
23229;BME280;11783;50.350;6.576;2023-04-10T07:36:00;96533.47;;;5.31;97.42
23229;BME280;11783;50.350;6.576;2023-04-10T07:38:27;96532.69;;;5.50;96.73
23229;BME280;11783;50.350;6.576;2023-04-10T07:40:56;96530.66;;;5.65;94.88
23229;BME280;11783;50.350;6.576;2023-04-10T07:43:22;96522.28;;;5.75;93.47
23229;BME280;11783;50.350;6.576;2023-04-10T07:45:47;96525.16;;;6.00;93.36
23229;BME280;11783;50.350;6.576;2023-04-10T07:48:13;96533.59;;;6.22;93.63
23229;BME280;11783;50.350;6.576;2023-04-10T07:50:38;96536.19;;;6.42;90.44
23229;BME280;11783;50.350;6.576;2023-04-10T07:53:04;96534.03;;;6.63;89.94
23229;BME280;11783;50.350;6.576;2023-04-10T07:55:39;96525.25;;;6.76;89.86
23229;BME280;11783;50.350;6.576;2023-04-10T07:58:04;96518.41;;;7.00;88.78
23229;BME280;11783;50.350;6.576;2023-04-10T08:00:31;96508.72;;;7.19;86.45
23229;BME280;11783;50.350;6.576;2023-04-10T08:02:56;96509.00;;;7.36;85.56
23229;BME280;11783;50.350;6.576;2023-04-10T08:05:22;96510.00;;;7.59;84.26
23229;BME280;11783;50.350;6.576;2023-04-10T08:07:47;96511.69;;;7.97;84.96
23229;BME280;11783;50.350;6.576;2023-04-10T08:10:13;96515.16;;;8.16;79.56
23229;BME280;11783;50.350;6.576;2023-04-10T08:12:38;96506.03;;;8.30;78.54
23229;BME280;11783;50.350;6.576;2023-04-10T08:15:04;96509.59;;;8.42;78.42
23229;BME280;11783;50.350;6.576;2023-04-10T08:17:29;96514.31;;;8.59;77.93
23229;BME280;11783;50.350;6.576;2023-04-10T08:19:55;96517.97;;;8.76;77.51
23229;BME280;11783;50.350;6.576;2023-04-10T08:22:20;96497.63;;;9.00;75.86
23229;BME280;11783;50.350;6.576;2023-04-10T08:24:46;96502.53;;;9.26;76.01
23229;BME280;11783;50.350;6.576;2023-04-10T08:27:11;96500.59;;;9.45;73.03
23229;BME280;11783;50.350;6.576;2023-04-10T08:29:37;96499.34;;;9.48;71.96
23229;BME280;11783;50.350;6.576;2023-04-10T08:32:03;96495.91;;;9.70;74.18
23229;BME280;11783;50.350;6.576;2023-04-10T08:34:28;96496.47;;;9.84;71.17
23229;BME280;11783;50.350;6.576;2023-04-10T08:36:56;96489.34;;;9.73;70.17
23229;BME280;11783;50.350;6.576;2023-04-10T08:39:21;96497.16;;;9.80;70.42
23229;BME280;11783;50.350;6.576;2023-04-10T08:41:47;96493.25;;;9.94;70.18
23229;BME280;11783;50.350;6.576;2023-04-10T08:44:12;96484.47;;;9.93;68.47
23229;BME280;11783;50.350;6.576;2023-04-10T08:46:41;96485.94;;;10.13;68.63
23229;BME280;11783;50.350;6.576;2023-04-10T08:49:09;96478.91;;;10.30;68.29
23229;BME280;11783;50.350;6.576;2023-04-10T08:51:38;96463.75;;;10.42;66.83
23229;BME280;11783;50.350;6.576;2023-04-10T08:54:10;96460.03;;;10.43;66.83
23229;BME280;11783;50.350;6.576;2023-04-10T08:56:40;96459.69;;;10.40;65.22
23229;BME280;11783;50.350;6.576;2023-04-10T08:59:07;96455.47;;;10.55;67.31
23229;BME280;11783;50.350;6.576;2023-04-10T09:01:32;96451.09;;;10.61;62.93
23229;BME280;11783;50.350;6.576;2023-04-10T09:03:59;96447.75;;;10.82;65.13
23229;BME280;11783;50.350;6.576;2023-04-10T09:06:25;96430.19;;;10.81;65.52
23229;BME280;11783;50.350;6.576;2023-04-10T09:08:51;96434.63;;;10.92;64.82
23229;BME280;11783;50.350;6.576;2023-04-10T09:11:16;96429.47;;;10.86;64.47
23229;BME280;11783;50.350;6.576;2023-04-10T09:13:43;96430.28;;;11.03;64.95
23229;BME280;11783;50.350;6.576;2023-04-10T09:16:09;96432.56;;;11.28;64.93
23229;BME280;11783;50.350;6.576;2023-04-10T09:18:49;96430.44;;;11.47;62.61
23229;BME280;11783;50.350;6.576;2023-04-10T09:21:17;96429.72;;;11.51;62.41
23229;BME280;11783;50.350;6.576;2023-04-10T09:23:44;96426.16;;;11.63;61.42
23229;BME280;11783;50.350;6.576;2023-04-10T09:26:28;96417.75;;;11.88;62.57
23229;BME280;11783;50.350;6.576;2023-04-10T09:28:57;96421.56;;;12.13;58.18
23229;BME280;11783;50.350;6.576;2023-04-10T09:31:31;96422.84;;;12.33;58.45
23229;BME280;11783;50.350;6.576;2023-04-10T09:34:22;96421.66;;;12.46;59.02
23229;BME280;11783;50.350;6.576;2023-04-10T09:36:55;96431.31;;;12.52;57.75
23229;BME280;11783;50.350;6.576;2023-04-10T09:39:25;96432.22;;;12.62;58.42
23229;BME280;11783;50.350;6.576;2023-04-10T09:41:56;96424.09;;;12.74;57.51
23229;BME280;11783;50.350;6.576;2023-04-10T09:44:34;96416.94;;;12.80;56.92
23229;BME280;11783;50.350;6.576;2023-04-10T09:47:19;96419.78;;;12.68;58.00
23229;BME280;11783;50.350;6.576;2023-04-10T09:49:53;96412.63;;;12.73;57.50
23229;BME280;11783;50.350;6.576;2023-04-10T09:52:24;96410.53;;;12.81;58.42
23229;BME280;11783;50.350;6.576;2023-04-10T09:54:51;96422.09;;;12.86;58.00
23229;BME280;11783;50.350;6.576;2023-04-10T09:57:19;96407.56;;;13.04;57.27
23229;BME280;11783;50.350;6.576;2023-04-10T09:59:53;96415.13;;;13.17;56.60
23229;BME280;11783;50.350;6.576;2023-04-10T10:02:21;96395.44;;;13.18;56.15
23229;BME280;11783;50.350;6.576;2023-04-10T10:04:47;96398.72;;;13.30;56.52
23229;BME280;11783;50.350;6.576;2023-04-10T10:07:14;96392.84;;;13.28;56.13
23229;BME280;11783;50.350;6.576;2023-04-10T10:09:41;96405.69;;;13.31;55.32
23229;BME280;11783;50.350;6.576;2023-04-10T10:12:09;96404.31;;;13.24;52.37
23229;BME280;11783;50.350;6.576;2023-04-10T10:14:41;96402.78;;;13.06;55.50
23229;BME280;11783;50.350;6.576;2023-04-10T10:17:10;96395.09;;;13.15;54.74
23229;BME280;11783;50.350;6.576;2023-04-10T10:20:10;96389.94;;;13.35;55.59
23229;BME280;11783;50.350;6.576;2023-04-10T10:22:36;96379.91;;;13.47;54.39
23229;BME280;11783;50.350;6.576;2023-04-10T10:25:02;96376.53;;;13.62;53.44
23229;BME280;11783;50.350;6.576;2023-04-10T10:27:30;96381.59;;;13.58;52.08
23229;BME280;11783;50.350;6.576;2023-04-10T10:29:59;96370.16;;;13.73;54.29
23229;BME280;11783;50.350;6.576;2023-04-10T10:32:25;96368.91;;;13.86;54.57
23229;BME280;11783;50.350;6.576;2023-04-10T10:34:52;96360.44;;;14.09;53.41
23229;BME280;11783;50.350;6.576;2023-04-10T10:37:21;96347.34;;;14.13;53.02
23229;BME280;11783;50.350;6.576;2023-04-10T10:45:16;96338.63;;;14.43;51.95
23229;BME280;11783;50.350;6.576;2023-04-10T10:47:49;96331.31;;;14.13;48.57
23229;BME280;11783;50.350;6.576;2023-04-10T10:50:15;96333.19;;;14.12;51.41
23229;BME280;11783;50.350;6.576;2023-04-10T10:52:51;96326.25;;;14.11;50.82
23229;BME280;11783;50.350;6.576;2023-04-10T10:57:47;96326.53;;;14.20;51.50
23229;BME280;11783;50.350;6.576;2023-04-10T11:00:14;96314.78;;;14.31;49.06
23229;BME280;11783;50.350;6.576;2023-04-10T11:02:40;96318.31;;;14.42;51.33
23229;BME280;11783;50.350;6.576;2023-04-10T11:05:05;96301.78;;;14.60;51.61
23229;BME280;11783;50.350;6.576;2023-04-10T11:08:06;96299.66;;;14.57;51.32
23229;BME280;11783;50.350;6.576;2023-04-10T11:13:30;96301.25;;;14.94;50.95
23229;BME280;11783;50.350;6.576;2023-04-10T11:15:56;96300.47;;;14.93;51.31
23229;BME280;11783;50.350;6.576;2023-04-10T11:21:09;96288.16;;;14.51;47.49
23229;BME280;11783;50.350;6.576;2023-04-10T11:23:35;96286.25;;;14.47;50.14
23229;BME280;11783;50.350;6.576;2023-04-10T11:26:02;96284.66;;;14.66;49.87
23229;BME280;11783;50.350;6.576;2023-04-10T11:28:34;96276.59;;;14.41;46.40
23229;BME280;11783;50.350;6.576;2023-04-10T11:33:44;96288.94;;;14.57;48.17
23229;BME280;11783;50.350;6.576;2023-04-10T11:36:13;96293.16;;;14.33;45.97
23229;BME280;11783;50.350;6.576;2023-04-10T11:38:40;96280.56;;;14.18;47.72
23229;BME280;11783;50.350;6.576;2023-04-10T11:41:05;96281.88;;;14.10;48.56
23229;BME280;11783;50.350;6.576;2023-04-10T11:43:32;96283.22;;;14.08;49.50
23229;BME280;11783;50.350;6.576;2023-04-10T11:46:06;96275.75;;;14.20;50.37
23229;BME280;11783;50.350;6.576;2023-04-10T11:48:32;96275.25;;;14.38;48.47
23229;BME280;11783;50.350;6.576;2023-04-10T11:50:58;96271.81;;;14.58;50.40
23229;BME280;11783;50.350;6.576;2023-04-10T11:53:30;96283.53;;;14.32;49.16
23229;BME280;11783;50.350;6.576;2023-04-10T11:55:55;96268.03;;;14.39;50.13
23229;BME280;11783;50.350;6.576;2023-04-10T11:58:26;96266.75;;;14.51;49.94
23229;BME280;11783;50.350;6.576;2023-04-10T12:00:59;96255.72;;;14.43;50.58
23229;BME280;11783;50.350;6.576;2023-04-10T12:03:32;96256.78;;;14.27;46.43
23229;BME280;11783;50.350;6.576;2023-04-10T12:05:58;96265.06;;;14.20;47.32
23229;BME280;11783;50.350;6.576;2023-04-10T12:08:34;96267.22;;;14.18;43.75
23229;BME280;11783;50.350;6.576;2023-04-10T12:11:00;96247.13;;;14.05;46.93
23229;BME280;11783;50.350;6.576;2023-04-10T12:13:29;96248.47;;;14.03;48.02
23229;BME280;11783;50.350;6.576;2023-04-10T12:16:00;96238.56;;;14.08;48.61
23229;BME280;11783;50.350;6.576;2023-04-10T12:18:27;96241.53;;;14.27;49.73
23229;BME280;11783;50.350;6.576;2023-04-10T12:20:54;96246.09;;;14.27;47.91
23229;BME280;11783;50.350;6.576;2023-04-10T12:23:25;96243.72;;;14.35;48.55
23229;BME280;11783;50.350;6.576;2023-04-10T12:25:52;96226.31;;;14.43;48.75
23229;BME280;11783;50.350;6.576;2023-04-10T12:28:21;96227.69;;;14.61;46.81
23229;BME280;11783;50.350;6.576;2023-04-10T12:30:51;96238.66;;;14.69;46.45
23229;BME280;11783;50.350;6.576;2023-04-10T12:33:23;96237.59;;;14.70;48.24
23229;BME280;11783;50.350;6.576;2023-04-10T12:35:49;96240.78;;;14.88;46.61
23229;BME280;11783;50.350;6.576;2023-04-10T12:41:05;96234.06;;;15.10;47.51
23229;BME280;11783;50.350;6.576;2023-04-10T12:43:39;96212.06;;;15.29;46.88
23229;BME280;11783;50.350;6.576;2023-04-10T12:46:06;96219.00;;;15.35;44.29
23229;BME280;11783;50.350;6.576;2023-04-10T12:48:32;96194.88;;;15.45;45.83
23229;BME280;11783;50.350;6.576;2023-04-10T12:50:58;96195.66;;;15.40;44.79
23229;BME280;11783;50.350;6.576;2023-04-10T12:53:24;96191.09;;;15.41;46.45
23229;BME280;11783;50.350;6.576;2023-04-10T12:58:23;96203.88;;;15.69;46.08
23229;BME280;11783;50.350;6.576;2023-04-10T13:00:56;96196.84;;;15.79;45.81
23229;BME280;11783;50.350;6.576;2023-04-10T13:03:21;96200.09;;;15.75;45.81
23229;BME280;11783;50.350;6.576;2023-04-10T13:05:47;96207.00;;;15.87;44.52
23229;BME280;11783;50.350;6.576;2023-04-10T13:08:13;96198.16;;;15.86;44.27
23229;BME280;11783;50.350;6.576;2023-04-10T13:10:38;96191.97;;;15.91;45.10
23229;BME280;11783;50.350;6.576;2023-04-10T13:13:06;96181.53;;;15.89;45.63
23229;BME280;11783;50.350;6.576;2023-04-10T13:15:31;96184.53;;;15.78;44.29
23229;BME280;11783;50.350;6.576;2023-04-10T13:17:59;96184.44;;;15.43;45.51
23229;BME280;11783;50.350;6.576;2023-04-10T13:20:24;96176.78;;;15.01;43.28
23229;BME280;11783;50.350;6.576;2023-04-10T13:22:50;96168.78;;;15.06;47.08
23229;BME280;11783;50.350;6.576;2023-04-10T13:25:15;96165.53;;;15.04;46.68
23229;BME280;11783;50.350;6.576;2023-04-10T13:27:40;96160.72;;;15.01;45.09
23229;BME280;11783;50.350;6.576;2023-04-10T13:30:06;96168.19;;;15.14;45.90
23229;BME280;11783;50.350;6.576;2023-04-10T13:32:32;96160.66;;;15.22;45.73
23229;BME280;11783;50.350;6.576;2023-04-10T13:34:57;96148.38;;;15.15;45.63
23229;BME280;11783;50.350;6.576;2023-04-10T13:37:22;96155.78;;;15.39;47.70
23229;BME280;11783;50.350;6.576;2023-04-10T13:39:48;96147.22;;;15.37;47.21